sensor_id;sensor_type;location;lat;lon;timestamp;P1;durP1;ratioP1;P2;durP2;ratioP2
9424;SDS011;17139;52.140;11.636;2023-01-10T00:00:21;3.80;;;2.87;;
9424;SDS011;17139;52.140;11.636;2023-01-10T00:02:49;6.63;;;2.47;;
9424;SDS011;17139;52.140;11.636;2023-01-10T00:05:16;4.67;;;2.93;;
9424;SDS011;17139;52.140;11.636;2023-01-10T00:07:44;4.63;;;2.07;;
9424;SDS011;17139;52.140;11.636;2023-01-10T00:10:11;2.83;;;2.63;;
9424;SDS011;17139;52.140;11.636;2023-01-10T00:12:38;2.17;;;1.70;;
9424;SDS011;17139;52.140;11.636;2023-01-10T00:15:25;2.33;;;2.23;;
9424;SDS011;17139;52.140;11.636;2023-01-10T00:17:52;4.97;;;2.33;;
9424;SDS011;17139;52.140;11.636;2023-01-10T00:20:19;4.97;;;3.53;;
9424;SDS011;17139;52.140;11.636;2023-01-10T00:22:46;2.80;;;2.70;;
9424;SDS011;17139;52.140;11.636;2023-01-10T00:25:15;3.20;;;2.23;;
9424;SDS011;17139;52.140;11.636;2023-01-10T00:27:44;2.10;;;2.00;;
9424;SDS011;17139;52.140;11.636;2023-01-10T00:30:13;2.63;;;2.53;;
9424;SDS011;17139;52.140;11.636;2023-01-10T00:32:42;2.37;;;2.03;;
9424;SDS011;17139;52.140;11.636;2023-01-10T00:35:10;2.27;;;2.17;;
9424;SDS011;17139;52.140;11.636;2023-01-10T00:37:38;2.70;;;2.07;;
9424;SDS011;17139;52.140;11.636;2023-01-10T00:40:06;1.87;;;1.87;;
9424;SDS011;17139;52.140;11.636;2023-01-10T00:42:35;2.17;;;2.03;;
9424;SDS011;17139;52.140;11.636;2023-01-10T00:45:20;4.90;;;2.43;;
9424;SDS011;17139;52.140;11.636;2023-01-10T00:47:50;2.23;;;2.13;;
9424;SDS011;17139;52.140;11.636;2023-01-10T00:50:17;2.88;;;2.67;;
9424;SDS011;17139;52.140;11.636;2023-01-10T00:52:45;3.10;;;2.65;;
9424;SDS011;17139;52.140;11.636;2023-01-10T00:55:12;6.67;;;3.10;;
9424;SDS011;17139;52.140;11.636;2023-01-10T00:57:39;2.27;;;2.17;;
9424;SDS011;17139;52.140;11.636;2023-01-10T01:00:07;8.17;;;2.27;;
9424;SDS011;17139;52.140;11.636;2023-01-10T01:02:36;4.10;;;2.17;;
9424;SDS011;17139;52.140;11.636;2023-01-10T01:05:05;3.97;;;2.60;;
9424;SDS011;17139;52.140;11.636;2023-01-10T01:07:33;3.53;;;2.43;;
9424;SDS011;17139;52.140;11.636;2023-01-10T01:10:00;2.43;;;2.33;;
9424;SDS011;17139;52.140;11.636;2023-01-10T01:12:45;2.27;;;2.07;;
9424;SDS011;17139;52.140;11.636;2023-01-10T01:15:12;4.63;;;2.70;;
9424;SDS011;17139;52.140;11.636;2023-01-10T01:17:39;2.93;;;2.67;;
9424;SDS011;17139;52.140;11.636;2023-01-10T01:20:08;9.27;;;4.18;;
9424;SDS011;17139;52.140;11.636;2023-01-10T01:22:36;4.70;;;4.20;;
9424;SDS011;17139;52.140;11.636;2023-01-10T01:25:03;4.53;;;2.70;;
9424;SDS011;17139;52.140;11.636;2023-01-10T01:27:30;2.73;;;2.63;;
9424;SDS011;17139;52.140;11.636;2023-01-10T01:29:59;6.83;;;2.60;;
9424;SDS011;17139;52.140;11.636;2023-01-10T01:32:26;6.73;;;2.60;;
9424;SDS011;17139;52.140;11.636;2023-01-10T01:34:53;3.13;;;2.47;;
9424;SDS011;17139;52.140;11.636;2023-01-10T01:37:21;6.17;;;2.87;;
9424;SDS011;17139;52.140;11.636;2023-01-10T01:39:49;2.50;;;2.30;;
9424;SDS011;17139;52.140;11.636;2023-01-10T01:42:19;2.90;;;2.67;;
9424;SDS011;17139;52.140;11.636;2023-01-10T01:47:56;7.20;;;4.93;;
9424;SDS011;17139;52.140;11.636;2023-01-10T01:50:29;3.10;;;2.90;;
9424;SDS011;17139;52.140;11.636;2023-01-10T01:53:04;3.30;;;3.10;;
9424;SDS011;17139;52.140;11.636;2023-01-10T01:55:37;3.50;;;3.20;;
9424;SDS011;17139;52.140;11.636;2023-01-10T01:58:07;5.45;;;4.95;;
9424;SDS011;17139;52.140;11.636;2023-01-10T02:00:39;3.57;;;3.37;;
9424;SDS011;17139;52.140;11.636;2023-01-10T02:03:06;4.03;;;3.27;;
9424;SDS011;17139;52.140;11.636;2023-01-10T02:05:34;6.13;;;2.70;;
9424;SDS011;17139;52.140;11.636;2023-01-10T02:08:05;2.90;;;2.70;;
9424;SDS011;17139;52.140;11.636;2023-01-10T02:10:34;2.73;;;2.53;;
9424;SDS011;17139;52.140;11.636;2023-01-10T02:13:05;4.07;;;2.97;;
9424;SDS011;17139;52.140;11.636;2023-01-10T02:15:35;4.73;;;2.60;;
9424;SDS011;17139;52.140;11.636;2023-01-10T02:18:02;3.10;;;2.90;;
9424;SDS011;17139;52.140;11.636;2023-01-10T02:20:30;4.47;;;2.93;;
9424;SDS011;17139;52.140;11.636;2023-01-10T02:23:12;5.17;;;2.57;;
9424;SDS011;17139;52.140;11.636;2023-01-10T02:26:33;4.00;;;2.60;;
9424;SDS011;17139;52.140;11.636;2023-01-10T02:29:38;3.50;;;3.20;;
9424;SDS011;17139;52.140;11.636;2023-01-10T02:32:32;6.43;;;4.33;;
9424;SDS011;17139;52.140;11.636;2023-01-10T02:35:08;3.17;;;2.97;;
9424;SDS011;17139;52.140;11.636;2023-01-10T02:37:44;2.90;;;2.53;;
9424;SDS011;17139;52.140;11.636;2023-01-10T02:40:25;4.57;;;3.10;;
9424;SDS011;17139;52.140;11.636;2023-01-10T02:43:00;3.83;;;2.67;;
9424;SDS011;17139;52.140;11.636;2023-01-10T02:45:32;3.50;;;1.63;;
9424;SDS011;17139;52.140;11.636;2023-01-10T02:48:04;5.67;;;2.33;;
9424;SDS011;17139;52.140;11.636;2023-01-10T02:50:48;4.77;;;2.90;;
9424;SDS011;17139;52.140;11.636;2023-01-10T02:53:20;3.13;;;2.70;;
9424;SDS011;17139;52.140;11.636;2023-01-10T02:55:57;1.73;;;1.63;;
9424;SDS011;17139;52.140;11.636;2023-01-10T02:58:54;2.67;;;2.47;;
9424;SDS011;17139;52.140;11.636;2023-01-10T03:01:32;5.05;;;4.30;;
9424;SDS011;17139;52.140;11.636;2023-01-10T03:04:11;2.87;;;2.40;;
9424;SDS011;17139;52.140;11.636;2023-01-10T03:06:46;3.33;;;2.97;;
9424;SDS011;17139;52.140;11.636;2023-01-10T03:09:20;6.85;;;4.25;;
9424;SDS011;17139;52.140;11.636;2023-01-10T03:11:55;3.20;;;2.60;;
9424;SDS011;17139;52.140;11.636;2023-01-10T03:14:29;4.17;;;3.80;;
9424;SDS011;17139;52.140;11.636;2023-01-10T03:16:59;2.27;;;1.80;;
9424;SDS011;17139;52.140;11.636;2023-01-10T03:19:32;2.80;;;2.60;;
9424;SDS011;17139;52.140;11.636;2023-01-10T03:22:04;3.53;;;2.63;;
9424;SDS011;17139;52.140;11.636;2023-01-10T03:24:35;3.70;;;2.80;;
9424;SDS011;17139;52.140;11.636;2023-01-10T03:27:06;3.23;;;2.73;;
9424;SDS011;17139;52.140;11.636;2023-01-10T03:29:38;5.77;;;1.93;;
9424;SDS011;17139;52.140;11.636;2023-01-10T03:32:10;2.83;;;2.70;;
9424;SDS011;17139;52.140;11.636;2023-01-10T03:34:42;3.00;;;2.63;;
9424;SDS011;17139;52.140;11.636;2023-01-10T03:37:11;4.73;;;1.97;;
9424;SDS011;17139;52.140;11.636;2023-01-10T03:39:45;3.67;;;2.70;;
9424;SDS011;17139;52.140;11.636;2023-01-10T03:42:20;5.13;;;4.43;;
9424;SDS011;17139;52.140;11.636;2023-01-10T03:44:54;3.43;;;3.20;;
9424;SDS011;17139;52.140;11.636;2023-01-10T03:47:27;4.43;;;2.87;;
9424;SDS011;17139;52.140;11.636;2023-01-10T03:50:02;2.77;;;2.63;;
9424;SDS011;17139;52.140;11.636;2023-01-10T03:52:32;5.43;;;2.77;;
9424;SDS011;17139;52.140;11.636;2023-01-10T03:55:00;3.50;;;3.20;;
9424;SDS011;17139;52.140;11.636;2023-01-10T03:57:29;3.20;;;2.60;;
9424;SDS011;17139;52.140;11.636;2023-01-10T03:59:56;2.33;;;2.23;;
9424;SDS011;17139;52.140;11.636;2023-01-10T04:02:24;2.50;;;2.40;;
9424;SDS011;17139;52.140;11.636;2023-01-10T04:04:53;3.77;;;2.53;;
9424;SDS011;17139;52.140;11.636;2023-01-10T04:07:21;4.80;;;2.13;;
9424;SDS011;17139;52.140;11.636;2023-01-10T04:09:48;4.17;;;3.00;;
9424;SDS011;17139;52.140;11.636;2023-01-10T04:12:16;4.18;;;3.88;;
9424;SDS011;17139;52.140;11.636;2023-01-10T04:14:43;5.30;;;4.13;;
9424;SDS011;17139;52.140;11.636;2023-01-10T04:17:11;6.17;;;2.93;;
9424;SDS011;17139;52.140;11.636;2023-01-10T04:19:38;5.40;;;2.97;;
9424;SDS011;17139;52.140;11.636;2023-01-10T04:22:05;2.67;;;2.57;;
9424;SDS011;17139;52.140;11.636;2023-01-10T04:24:33;3.00;;;2.80;;
9424;SDS011;17139;52.140;11.636;2023-01-10T04:27:00;3.43;;;3.00;;
9424;SDS011;17139;52.140;11.636;2023-01-10T04:29:27;3.20;;;3.00;;
9424;SDS011;17139;52.140;11.636;2023-01-10T04:31:54;2.43;;;2.17;;
9424;SDS011;17139;52.140;11.636;2023-01-10T04:34:21;3.10;;;2.90;;
9424;SDS011;17139;52.140;11.636;2023-01-10T04:36:48;3.20;;;3.00;;
9424;SDS011;17139;52.140;11.636;2023-01-10T04:39:15;3.50;;;3.30;;
9424;SDS011;17139;52.140;11.636;2023-01-10T04:41:44;4.82;;;4.25;;
9424;SDS011;17139;52.140;11.636;2023-01-10T04:44:11;5.72;;;4.70;;
9424;SDS011;17139;52.140;11.636;2023-01-10T04:46:38;3.70;;;3.50;;
9424;SDS011;17139;52.140;11.636;2023-01-10T04:49:05;3.50;;;3.30;;
9424;SDS011;17139;52.140;11.636;2023-01-10T04:51:32;4.20;;;3.90;;
9424;SDS011;17139;52.140;11.636;2023-01-10T04:53:59;3.20;;;3.00;;
9424;SDS011;17139;52.140;11.636;2023-01-10T04:56:26;3.47;;;3.13;;
9424;SDS011;17139;52.140;11.636;2023-01-10T04:58:55;3.27;;;3.17;;
9424;SDS011;17139;52.140;11.636;2023-01-10T05:01:22;2.60;;;2.50;;
9424;SDS011;17139;52.140;11.636;2023-01-10T05:03:51;3.13;;;3.03;;
9424;SDS011;17139;52.140;11.636;2023-01-10T05:06:20;5.00;;;3.47;;
9424;SDS011;17139;52.140;11.636;2023-01-10T05:08:48;8.37;;;3.33;;
9424;SDS011;17139;52.140;11.636;2023-01-10T05:11:15;7.28;;;5.60;;
9424;SDS011;17139;52.140;11.636;2023-01-10T05:13:42;4.23;;;3.83;;
9424;SDS011;17139;52.140;11.636;2023-01-10T05:16:10;4.50;;;4.10;;
9424;SDS011;17139;52.140;11.636;2023-01-10T05:18:37;8.47;;;3.30;;
9424;SDS011;17139;52.140;11.636;2023-01-10T05:21:05;4.20;;;3.80;;
9424;SDS011;17139;52.140;11.636;2023-01-10T05:23:33;3.10;;;3.00;;
9424;SDS011;17139;52.140;11.636;2023-01-10T05:26:04;3.40;;;3.20;;
9424;SDS011;17139;52.140;11.636;2023-01-10T05:28:32;6.40;;;5.18;;
9424;SDS011;17139;52.140;11.636;2023-01-10T05:30:59;5.87;;;5.47;;
9424;SDS011;17139;52.140;11.636;2023-01-10T05:33:27;4.60;;;4.20;;
9424;SDS011;17139;52.140;11.636;2023-01-10T05:35:54;6.73;;;4.13;;
9424;SDS011;17139;52.140;11.636;2023-01-10T05:38:21;3.97;;;3.17;;
9424;SDS011;17139;52.140;11.636;2023-01-10T05:40:53;3.80;;;3.53;;
9424;SDS011;17139;52.140;11.636;2023-01-10T05:43:20;8.33;;;3.13;;
9424;SDS011;17139;52.140;11.636;2023-01-10T05:45:48;4.13;;;3.83;;
9424;SDS011;17139;52.140;11.636;2023-01-10T05:48:15;9.77;;;5.15;;
9424;SDS011;17139;52.140;11.636;2023-01-10T05:50:45;4.40;;;4.10;;
9424;SDS011;17139;52.140;11.636;2023-01-10T05:53:12;2.77;;;2.67;;
9424;SDS011;17139;52.140;11.636;2023-01-10T05:55:39;3.07;;;2.87;;
9424;SDS011;17139;52.140;11.636;2023-01-10T05:58:06;4.57;;;2.60;;
9424;SDS011;17139;52.140;11.636;2023-01-10T06:00:35;1.87;;;1.83;;
9424;SDS011;17139;52.140;11.636;2023-01-10T06:03:02;2.83;;;2.27;;
9424;SDS011;17139;52.140;11.636;2023-01-10T06:05:29;4.60;;;2.13;;
9424;SDS011;17139;52.140;11.636;2023-01-10T06:07:58;2.33;;;2.23;;
9424;SDS011;17139;52.140;11.636;2023-01-10T06:10:25;5.57;;;2.00;;
9424;SDS011;17139;52.140;11.636;2023-01-10T06:12:52;4.57;;;2.33;;
9424;SDS011;17139;52.140;11.636;2023-01-10T06:15:19;4.82;;;2.95;;
9424;SDS011;17139;52.140;11.636;2023-01-10T06:17:46;4.50;;;3.10;;
9424;SDS011;17139;52.140;11.636;2023-01-10T06:20:13;4.47;;;3.07;;
9424;SDS011;17139;52.140;11.636;2023-01-10T06:22:40;2.83;;;2.53;;
9424;SDS011;17139;52.140;11.636;2023-01-10T06:25:10;4.60;;;2.07;;
9424;SDS011;17139;52.140;11.636;2023-01-10T06:27:37;2.40;;;2.20;;
9424;SDS011;17139;52.140;11.636;2023-01-10T06:30:05;2.73;;;2.60;;
9424;SDS011;17139;52.140;11.636;2023-01-10T06:32:34;3.50;;;2.10;;
9424;SDS011;17139;52.140;11.636;2023-01-10T06:35:01;3.40;;;2.30;;
9424;SDS011;17139;52.140;11.636;2023-01-10T06:37:28;3.07;;;2.03;;
9424;SDS011;17139;52.140;11.636;2023-01-10T06:39:56;5.47;;;2.37;;
9424;SDS011;17139;52.140;11.636;2023-01-10T06:42:24;2.77;;;2.23;;
9424;SDS011;17139;52.140;11.636;2023-01-10T06:44:51;5.82;;;3.30;;
9424;SDS011;17139;52.140;11.636;2023-01-10T06:47:18;2.60;;;2.40;;
9424;SDS011;17139;52.140;11.636;2023-01-10T06:49:45;6.83;;;2.27;;
9424;SDS011;17139;52.140;11.636;2023-01-10T06:52:12;2.93;;;2.20;;
9424;SDS011;17139;52.140;11.636;2023-01-10T06:54:39;4.73;;;2.23;;
9424;SDS011;17139;52.140;11.636;2023-01-10T06:57:06;7.97;;;2.53;;
9424;SDS011;17139;52.140;11.636;2023-01-10T06:59:35;5.90;;;2.20;;
9424;SDS011;17139;52.140;11.636;2023-01-10T07:02:02;2.40;;;2.30;;
9424;SDS011;17139;52.140;11.636;2023-01-10T07:04:29;5.70;;;2.27;;
9424;SDS011;17139;52.140;11.636;2023-01-10T07:06:56;6.60;;;2.33;;
9424;SDS011;17139;52.140;11.636;2023-01-10T07:09:23;2.13;;;2.03;;
9424;SDS011;17139;52.140;11.636;2023-01-10T07:11:53;2.03;;;1.83;;
9424;SDS011;17139;52.140;11.636;2023-01-10T07:14:20;2.63;;;2.13;;
9424;SDS011;17139;52.140;11.636;2023-01-10T07:16:49;2.50;;;2.00;;
9424;SDS011;17139;52.140;11.636;2023-01-10T07:19:16;3.77;;;1.97;;
9424;SDS011;17139;52.140;11.636;2023-01-10T07:21:44;1.87;;;1.77;;
9424;SDS011;17139;52.140;11.636;2023-01-10T07:24:11;3.73;;;2.53;;
9424;SDS011;17139;52.140;11.636;2023-01-10T07:26:38;2.33;;;2.00;;
9424;SDS011;17139;52.140;11.636;2023-01-10T07:29:05;2.30;;;2.20;;
9424;SDS011;17139;52.140;11.636;2023-01-10T07:31:32;7.37;;;2.57;;
9424;SDS011;17139;52.140;11.636;2023-01-10T07:34:01;5.70;;;3.22;;
9424;SDS011;17139;52.140;11.636;2023-01-10T07:36:28;5.97;;;2.13;;
9424;SDS011;17139;52.140;11.636;2023-01-10T07:38:55;2.43;;;1.93;;
9424;SDS011;17139;52.140;11.636;2023-01-10T07:41:22;4.63;;;2.03;;
9424;SDS011;17139;52.140;11.636;2023-01-10T07:43:49;2.50;;;2.30;;
9424;SDS011;17139;52.140;11.636;2023-01-10T07:46:16;5.10;;;2.20;;
9424;SDS011;17139;52.140;11.636;2023-01-10T07:48:43;9.80;;;2.00;;
9424;SDS011;17139;52.140;11.636;2023-01-10T07:51:12;1.77;;;1.67;;
9424;SDS011;17139;52.140;11.636;2023-01-10T07:53:39;2.13;;;1.87;;
9424;SDS011;17139;52.140;11.636;2023-01-10T07:56:06;3.83;;;2.03;;
9424;SDS011;17139;52.140;11.636;2023-01-10T07:58:34;2.40;;;1.43;;
9424;SDS011;17139;52.140;11.636;2023-01-10T08:01:01;6.90;;;2.03;;
9424;SDS011;17139;52.140;11.636;2023-01-10T08:03:30;3.47;;;2.57;;
9424;SDS011;17139;52.140;11.636;2023-01-10T08:05:58;3.13;;;2.37;;
9424;SDS011;17139;52.140;11.636;2023-01-10T08:08:28;2.63;;;1.50;;
9424;SDS011;17139;52.140;11.636;2023-01-10T08:10:55;1.93;;;1.43;;
9424;SDS011;17139;52.140;11.636;2023-01-10T08:13:23;6.57;;;2.70;;
9424;SDS011;17139;52.140;11.636;2023-01-10T08:15:51;4.90;;;2.60;;
9424;SDS011;17139;52.140;11.636;2023-01-10T08:18:18;4.83;;;1.90;;
9424;SDS011;17139;52.140;11.636;2023-01-10T08:20:47;2.63;;;1.70;;
9424;SDS011;17139;52.140;11.636;2023-01-10T08:23:15;3.20;;;1.73;;
9424;SDS011;17139;52.140;11.636;2023-01-10T08:25:43;1.40;;;1.30;;
9424;SDS011;17139;52.140;11.636;2023-01-10T08:28:11;4.23;;;1.30;;
9424;SDS011;17139;52.140;11.636;2023-01-10T08:30:39;4.17;;;1.73;;
9424;SDS011;17139;52.140;11.636;2023-01-10T08:33:06;3.10;;;1.30;;
9424;SDS011;17139;52.140;11.636;2023-01-10T08:35:37;1.13;;;1.13;;
9424;SDS011;17139;52.140;11.636;2023-01-10T08:38:06;1.70;;;1.27;;
9424;SDS011;17139;52.140;11.636;2023-01-10T08:40:33;5.22;;;1.80;;
9424;SDS011;17139;52.140;11.636;2023-01-10T08:43:03;8.63;;;1.77;;
9424;SDS011;17139;52.140;11.636;2023-01-10T08:45:31;1.60;;;1.50;;
9424;SDS011;17139;52.140;11.636;2023-01-10T08:48:00;4.00;;;2.08;;
9424;SDS011;17139;52.140;11.636;2023-01-10T08:50:28;2.90;;;1.63;;
9424;SDS011;17139;52.140;11.636;2023-01-10T08:52:56;3.00;;;1.57;;
9424;SDS011;17139;52.140;11.636;2023-01-10T08:55:23;4.87;;;1.60;;
9424;SDS011;17139;52.140;11.636;2023-01-10T08:57:51;2.90;;;1.60;;
9424;SDS011;17139;52.140;11.636;2023-01-10T09:00:20;3.97;;;1.40;;
9424;SDS011;17139;52.140;11.636;2023-01-10T09:02:48;1.93;;;1.77;;
9424;SDS011;17139;52.140;11.636;2023-01-10T09:05:15;3.03;;;1.60;;
9424;SDS011;17139;52.140;11.636;2023-01-10T09:07:42;1.43;;;1.33;;
9424;SDS011;17139;52.140;11.636;2023-01-10T09:10:10;1.40;;;1.40;;
9424;SDS011;17139;52.140;11.636;2023-01-10T09:12:37;2.20;;;1.60;;
9424;SDS011;17139;52.140;11.636;2023-01-10T09:15:21;3.83;;;1.83;;
9424;SDS011;17139;52.140;11.636;2023-01-10T09:17:51;3.13;;;2.17;;
9424;SDS011;17139;52.140;11.636;2023-01-10T09:20:20;4.07;;;2.45;;
9424;SDS011;17139;52.140;11.636;2023-01-10T09:22:48;7.60;;;1.70;;
9424;SDS011;17139;52.140;11.636;2023-01-10T09:25:15;2.33;;;1.30;;
9424;SDS011;17139;52.140;11.636;2023-01-10T09:27:43;4.83;;;1.93;;
9424;SDS011;17139;52.140;11.636;2023-01-10T09:30:10;6.67;;;2.00;;
9424;SDS011;17139;52.140;11.636;2023-01-10T09:32:39;6.90;;;2.23;;
9424;SDS011;17139;52.140;11.636;2023-01-10T09:35:06;1.90;;;1.80;;
9424;SDS011;17139;52.140;11.636;2023-01-10T09:37:34;10.07;;;1.87;;
9424;SDS011;17139;52.140;11.636;2023-01-10T09:40:02;4.00;;;2.20;;
9424;SDS011;17139;52.140;11.636;2023-01-10T09:42:38;7.33;;;1.77;;
9424;SDS011;17139;52.140;11.636;2023-01-10T09:45:30;3.80;;;2.47;;
9424;SDS011;17139;52.140;11.636;2023-01-10T09:48:05;6.65;;;2.80;;
9424;SDS011;17139;52.140;11.636;2023-01-10T09:50:38;2.57;;;2.37;;
9424;SDS011;17139;52.140;11.636;2023-01-10T09:53:13;7.87;;;2.10;;
9424;SDS011;17139;52.140;11.636;2023-01-10T09:55:47;1.77;;;1.67;;
9424;SDS011;17139;52.140;11.636;2023-01-10T09:58:18;5.93;;;2.17;;
9424;SDS011;17139;52.140;11.636;2023-01-10T10:00:52;4.00;;;2.07;;
9424;SDS011;17139;52.140;11.636;2023-01-10T10:03:24;2.70;;;2.10;;
9424;SDS011;17139;52.140;11.636;2023-01-10T10:05:55;1.97;;;1.87;;
9424;SDS011;17139;52.140;11.636;2023-01-10T10:08:22;5.00;;;2.13;;
9424;SDS011;17139;52.140;11.636;2023-01-10T10:10:56;2.53;;;2.30;;
9424;SDS011;17139;52.140;11.636;2023-01-10T10:13:31;3.28;;;2.08;;
9424;SDS011;17139;52.140;11.636;2023-01-10T10:16:08;4.20;;;3.20;;
9424;SDS011;17139;52.140;11.636;2023-01-10T10:18:48;6.17;;;3.00;;
9424;SDS011;17139;52.140;11.636;2023-01-10T10:21:22;2.90;;;2.47;;
9424;SDS011;17139;52.140;11.636;2023-01-10T10:24:03;8.20;;;2.70;;
9424;SDS011;17139;52.140;11.636;2023-01-10T10:26:43;5.17;;;2.70;;
9424;SDS011;17139;52.140;11.636;2023-01-10T10:32:20;5.00;;;2.10;;
9424;SDS011;17139;52.140;11.636;2023-01-10T10:35:03;6.97;;;2.10;;
9424;SDS011;17139;52.140;11.636;2023-01-10T10:37:39;2.23;;;2.10;;
9424;SDS011;17139;52.140;11.636;2023-01-10T10:40:14;2.95;;;2.72;;
9424;SDS011;17139;52.140;11.636;2023-01-10T10:42:44;7.30;;;3.80;;
9424;SDS011;17139;52.140;11.636;2023-01-10T10:45:15;3.33;;;3.03;;
9424;SDS011;17139;52.140;11.636;2023-01-10T10:47:46;7.10;;;2.97;;
9424;SDS011;17139;52.140;11.636;2023-01-10T10:50:20;3.13;;;2.67;;
9424;SDS011;17139;52.140;11.636;2023-01-10T10:52:53;5.60;;;2.73;;
9424;SDS011;17139;52.140;11.636;2023-01-10T10:55:21;3.53;;;2.37;;
9424;SDS011;17139;52.140;11.636;2023-01-10T10:57:58;15.03;;;2.70;;
9424;SDS011;17139;52.140;11.636;2023-01-10T11:00:27;2.43;;;2.23;;
9424;SDS011;17139;52.140;11.636;2023-01-10T11:02:56;6.00;;;2.60;;
9424;SDS011;17139;52.140;11.636;2023-01-10T11:05:30;6.68;;;3.00;;
9424;SDS011;17139;52.140;11.636;2023-01-10T11:08:02;6.33;;;2.87;;
9424;SDS011;17139;52.140;11.636;2023-01-10T11:10:33;3.13;;;2.30;;
9424;SDS011;17139;52.140;11.636;2023-01-10T11:13:01;4.10;;;2.20;;
9424;SDS011;17139;52.140;11.636;2023-01-10T11:15:34;5.33;;;2.40;;
9424;SDS011;17139;52.140;11.636;2023-01-10T11:18:03;11.20;;;2.53;;
9424;SDS011;17139;52.140;11.636;2023-01-10T11:20:33;7.17;;;2.00;;
9424;SDS011;17139;52.140;11.636;2023-01-10T11:23:00;3.00;;;2.10;;
9424;SDS011;17139;52.140;11.636;2023-01-10T11:25:28;6.53;;;2.10;;
9424;SDS011;17139;52.140;11.636;2023-01-10T11:27:56;3.90;;;1.97;;
9424;SDS011;17139;52.140;11.636;2023-01-10T11:30:25;5.70;;;2.50;;
9424;SDS011;17139;52.140;11.636;2023-01-10T11:32:55;7.00;;;2.17;;
9424;SDS011;17139;52.140;11.636;2023-01-10T11:35:26;2.10;;;1.90;;
9424;SDS011;17139;52.140;11.636;2023-01-10T11:38:01;4.77;;;2.17;;
9424;SDS011;17139;52.140;11.636;2023-01-10T11:40:31;2.30;;;1.77;;
9424;SDS011;17139;52.140;11.636;2023-01-10T11:43:20;5.30;;;2.72;;
9424;SDS011;17139;52.140;11.636;2023-01-10T11:45:52;1.90;;;1.80;;
9424;SDS011;17139;52.140;11.636;2023-01-10T11:48:20;4.60;;;2.40;;
9424;SDS011;17139;52.140;11.636;2023-01-10T11:50:49;2.07;;;1.80;;
9424;SDS011;17139;52.140;11.636;2023-01-10T11:53:33;4.00;;;2.47;;
9424;SDS011;17139;52.140;11.636;2023-01-10T11:56:04;5.77;;;2.30;;
9424;SDS011;17139;52.140;11.636;2023-01-10T11:58:34;1.80;;;1.70;;
9424;SDS011;17139;52.140;11.636;2023-01-10T12:01:04;7.13;;;2.10;;
9424;SDS011;17139;52.140;11.636;2023-01-10T12:03:31;4.10;;;1.80;;
9424;SDS011;17139;52.140;11.636;2023-01-10T12:06:03;4.27;;;2.10;;
9424;SDS011;17139;52.140;11.636;2023-01-10T12:08:34;3.78;;;2.35;;
9424;SDS011;17139;52.140;11.636;2023-01-10T12:11:05;2.70;;;2.27;;
9424;SDS011;17139;52.140;11.636;2023-01-10T12:13:45;1.80;;;1.63;;
9424;SDS011;17139;52.140;11.636;2023-01-10T12:16:14;3.37;;;1.90;;
9424;SDS011;17139;52.140;11.636;2023-01-10T12:18:42;4.67;;;1.73;;
9424;SDS011;17139;52.140;11.636;2023-01-10T12:21:10;7.80;;;2.10;;
9424;SDS011;17139;52.140;11.636;2023-01-10T12:23:43;2.53;;;1.97;;
9424;SDS011;17139;52.140;11.636;2023-01-10T12:26:11;2.10;;;1.87;;
9424;SDS011;17139;52.140;11.636;2023-01-10T12:28:40;3.87;;;1.77;;
9424;SDS011;17139;52.140;11.636;2023-01-10T12:31:11;2.47;;;2.07;;
9424;SDS011;17139;52.140;11.636;2023-01-10T12:33:40;1.93;;;1.83;;
9424;SDS011;17139;52.140;11.636;2023-01-10T12:36:16;3.97;;;1.88;;
9424;SDS011;17139;52.140;11.636;2023-01-10T12:38:56;1.50;;;1.40;;
9424;SDS011;17139;52.140;11.636;2023-01-10T12:41:33;4.87;;;1.80;;
9424;SDS011;17139;52.140;11.636;2023-01-10T12:44:26;2.50;;;1.40;;
9424;SDS011;17139;52.140;11.636;2023-01-10T12:46:59;6.37;;;1.77;;
9424;SDS011;17139;52.140;11.636;2023-01-10T12:49:31;2.37;;;1.57;;
9424;SDS011;17139;52.140;11.636;2023-01-10T12:52:03;3.20;;;1.60;;
9424;SDS011;17139;52.140;11.636;2023-01-10T12:54:37;4.57;;;2.03;;
9424;SDS011;17139;52.140;11.636;2023-01-10T12:57:05;1.23;;;1.23;;
9424;SDS011;17139;52.140;11.636;2023-01-10T12:59:45;4.55;;;1.80;;
9424;SDS011;17139;52.140;11.636;2023-01-10T13:02:14;6.43;;;2.20;;
9424;SDS011;17139;52.140;11.636;2023-01-10T13:04:44;2.50;;;2.07;;
9424;SDS011;17139;52.140;11.636;2023-01-10T13:07:15;1.63;;;1.53;;
9424;SDS011;17139;52.140;11.636;2023-01-10T13:09:45;3.87;;;2.03;;
9424;SDS011;17139;52.140;11.636;2023-01-10T13:12:14;1.70;;;1.60;;
9424;SDS011;17139;52.140;11.636;2023-01-10T13:14:47;5.37;;;1.73;;
9424;SDS011;17139;52.140;11.636;2023-01-10T13:17:24;4.70;;;2.10;;
9424;SDS011;17139;52.140;11.636;2023-01-10T13:20:17;2.77;;;1.73;;
9424;SDS011;17139;52.140;11.636;2023-01-10T13:22:59;5.80;;;2.42;;
9424;SDS011;17139;52.140;11.636;2023-01-10T13:25:39;10.10;;;2.50;;
9424;SDS011;17139;52.140;11.636;2023-01-10T13:28:07;2.20;;;1.70;;
9424;SDS011;17139;52.140;11.636;2023-01-10T13:30:43;2.90;;;1.97;;
9424;SDS011;17139;52.140;11.636;2023-01-10T13:33:18;3.83;;;1.40;;
9424;SDS011;17139;52.140;11.636;2023-01-10T13:35:48;4.83;;;1.50;;
9424;SDS011;17139;52.140;11.636;2023-01-10T13:38:17;3.00;;;1.40;;
9424;SDS011;17139;52.140;11.636;2023-01-10T13:41:02;3.40;;;1.17;;
9424;SDS011;17139;52.140;11.636;2023-01-10T13:43:36;1.30;;;1.20;;
9424;SDS011;17139;52.140;11.636;2023-01-10T13:52:19;2.83;;;1.47;;
9424;SDS011;17139;52.140;11.636;2023-01-10T14:01:25;2.23;;;1.67;;
9424;SDS011;17139;52.140;11.636;2023-01-10T14:04:17;1.63;;;1.53;;
9424;SDS011;17139;52.140;11.636;2023-01-10T14:06:50;1.40;;;1.30;;
9424;SDS011;17139;52.140;11.636;2023-01-10T14:09:31;1.53;;;1.30;;
9424;SDS011;17139;52.140;11.636;2023-01-10T14:12:02;5.32;;;1.92;;
9424;SDS011;17139;52.140;11.636;2023-01-10T14:14:34;4.10;;;2.25;;
9424;SDS011;17139;52.140;11.636;2023-01-10T14:17:14;1.77;;;1.67;;
9424;SDS011;17139;52.140;11.636;2023-01-10T14:19:49;1.40;;;1.33;;
9424;SDS011;17139;52.140;11.636;2023-01-10T14:22:26;2.90;;;1.53;;
9424;SDS011;17139;52.140;11.636;2023-01-10T14:24:55;1.17;;;1.17;;
9424;SDS011;17139;52.140;11.636;2023-01-10T14:27:24;1.63;;;1.50;;
9424;SDS011;17139;52.140;11.636;2023-01-10T14:29:58;2.83;;;1.77;;
9424;SDS011;17139;52.140;11.636;2023-01-10T14:32:29;2.10;;;1.60;;
9424;SDS011;17139;52.140;11.636;2023-01-10T14:34:59;3.55;;;1.88;;
9424;SDS011;17139;52.140;11.636;2023-01-10T14:37:30;1.70;;;1.57;;
9424;SDS011;17139;52.140;11.636;2023-01-10T14:40:03;2.20;;;1.40;;
9424;SDS011;17139;52.140;11.636;2023-01-10T14:42:36;8.30;;;1.90;;
9424;SDS011;17139;52.140;11.636;2023-01-10T14:45:09;1.60;;;1.33;;
9424;SDS011;17139;52.140;11.636;2023-01-10T14:47:44;2.63;;;1.20;;
9424;SDS011;17139;52.140;11.636;2023-01-10T14:50:23;1.47;;;1.47;;
9424;SDS011;17139;52.140;11.636;2023-01-10T14:52:53;1.57;;;1.47;;
9424;SDS011;17139;52.140;11.636;2023-01-10T14:55:21;2.47;;;1.33;;
9424;SDS011;17139;52.140;11.636;2023-01-10T14:57:52;6.63;;;1.50;;
9424;SDS011;17139;52.140;11.636;2023-01-10T15:00:24;3.50;;;1.53;;
9424;SDS011;17139;52.140;11.636;2023-01-10T15:02:54;1.80;;;1.70;;
9424;SDS011;17139;52.140;11.636;2023-01-10T15:05:23;1.23;;;1.23;;
9424;SDS011;17139;52.140;11.636;2023-01-10T15:07:52;4.10;;;1.60;;
9424;SDS011;17139;52.140;11.636;2023-01-10T15:10:22;3.40;;;1.30;;
9424;SDS011;17139;52.140;11.636;2023-01-10T15:12:51;1.53;;;1.43;;
9424;SDS011;17139;52.140;11.636;2023-01-10T15:15:21;2.67;;;2.10;;
9424;SDS011;17139;52.140;11.636;2023-01-10T15:17:53;4.70;;;2.40;;
9424;SDS011;17139;52.140;11.636;2023-01-10T15:20:21;3.77;;;1.67;;
9424;SDS011;17139;52.140;11.636;2023-01-10T15:22:52;3.03;;;1.77;;
9424;SDS011;17139;52.140;11.636;2023-01-10T15:25:25;2.33;;;1.90;;
9424;SDS011;17139;52.140;11.636;2023-01-10T15:27:54;3.47;;;2.50;;